Aeroporto :
LOGIN :

Iscrizione | Disclaimer

   EN    FR    IT 

 










Sommario :    VFR   VFR Marginale   IFR   IFR Intensivo   IFR Molto Intensivo
Visibilità : 
Base nubi : 
>= 8 km
>= 3000ft
5 / 8 km
1000 / 3000 ft
1500m / 5 km
500 / 1000 ft
800 / 1500m
200 / 500 ft
< 800m
< 200 ft
Simboli :   Temporali  Nebbia  Neve Forte  Precipitazioni Forti  Vento > 20 kt
SIGMETs :   Varie  Temporali  Ghiacco  Turbolenza  Onda orograficha  Ceneri Vulcaniche






- Altitudine del aeroporto : 390 ft
- Codice IATA : NQY


EGHQ - Newquay

ULTIMO METAR :
  • 271650Z 10012KT 9000 -DZ BKN010 08/07 Q1013

METARs OBSOLETI :
  • 271620Z 10009KT 9000 BKN010 08/06 Q1013
  • 271550Z 09009KT 9999 OVC010 08/06 Q1014
  • 271520Z 10008KT 9999 OVC010 08/06 Q1014
  • 271450Z 11011KT 9999 SCT010 08/06 Q1014
  • 271420Z 11009KT 9999 SCT014 08/06 Q1014

TAF TAF EGHQ
Valido dal 27 a 15 ore il 28 a 00 ore UTC


271357Z 2715/2724 10009KT 9999 BKN022
TEMPO 2715/2721 6000 RA BKN012
PROB30
TEMPO 2720/2724 BKN008



MetMap, La meteo Aeronautica in un colpo d'occhio ! - Copyright ORBIFLY Dicembre 2007 - Disclaimer

ORBIFLY MET'MAP TEAM :

Programmazione e sviluppo : Alexandra Zaïnal
Concezione : Baudouin d'Aumeries
Aiuto per la programmazione : Marc-Olivier Méhu
Supporto tecnico e logistico : Manuel Goepfert
Aiuto per la traduzione : Arnaldo La Scala

Contatto : metmap@orbifly.com




FONTI E CREDITI :

   NOAA